Date,TemperatureHighF,TemperatureAvgF,TemperatureLowF,DewpointHighF,DewpointAvgF,DewpointLowF,HumidityHigh,HumidityAvg,HumidityLow,PressureMaxIn,PressureMinIn,WindSpeedMaxMPH,WindSpeedAvgMPH,GustSpeedMaxMPH,PrecipitationSumIn
2013-1-1,43.0,39.9,35.0,43.0,38.2,31.5,100,94,86,29.52,29.29,14,6,14,0.00
2013-1-2,38.0,33.5,27.0,32.1,29.7,26.3,100,86,71,29.57,29.49,12,4,12,0.00
2013-1-3,51.0,36.9,26.0,32.9,28.6,25.0,100,75,39,29.70,29.54,12,3,12,0.00
2013-1-4,50.0,41.9,35.0,32.8,30.4,27.5,83,65,47,29.77,29.61,8,2,8,0.00
2013-1-5,54.0,42.1,35.0,42.0,37.3,32.9,100,84,58,29.62,29.49,10,3,10,0.01
2013-1-6,58.0,40.8,30.0,36.0,29.4,23.7,100,69,29,29.64,29.51,14,4,14,0.00
2013-1-7,58.0,43.0,30.0,37.3,29.6,21.9,86,60,41,29.58,29.37,10,4,10,0.00
2013-1-8,48.0,46.1,44.0,48.0,42.1,32.6,100,87,64,29.37,29.22,14,5,14,0.69
2013-1-9,55.0,52.4,47.0,55.0,52.4,47.0,100,100,100,29.41,29.25,20,7,20,1.62
2013-1-10,61.0,54.8,48.0,58.0,50.7,44.6,100,87,59,29.30,29.20,17,7,17,0.04
2013-1-11,70.0,57.0,45.0,62.3,50.3,43.8,97,80,51,29.23,29.09,22,8,22,0.00
2013-1-12,73.0,54.7,35.0,69.8,54.0,33.4,100,98,72,29.17,28.94,23,9,23,0.26
2013-1-13,43.0,34.0,27.0,34.2,26.3,21.1,93,74,51,29.49,29.16,22,10,22,0.00
2013-1-14,44.0,32.5,24.0,28.0,23.7,20.1,88,71,49,29.56,29.43,16,6,16,0.00
2013-1-15,36.0,32.0,27.0,32.2,27.7,22.4,100,85,70,29.46,29.37,13,6,13,0.09
2013-1-16,47.0,34.4,23.0,24.5,21.8,16.7,89,63,34,29.51,29.41,15,4,15,0.04
2013-1-17,60.0,43.8,31.0,35.3,29.6,23.5,80,59,33,29.74,29.46,16,4,16,0.00
2013-1-18,62.0,46.0,33.0,38.2,33.6,26.3,88,64,38,29.76,29.53,15,5,15,0.00
2013-1-19,65.0,49.6,37.0,46.5,40.8,33.7,98,73,45,29.54,29.44,16,6,16,0.00
2013-1-20,70.0,52.8,40.0,52.5,44.6,40.0,100,77,42,29.50,29.37,13,4,13,0.00
2013-1-21,60.0,45.8,34.0,46.0,35.2,25.6,100,69,45,29.56,29.39,12,4,12,0.00
2013-1-22,63.0,47.2,33.0,46.9,37.4,24.9,85,69,50,29.57,29.48,9,3,9,0.00
2013-1-23,73.0,58.5,48.0,55.1,51.6,44.3,100,80,52,29.58,29.43,15,6,15,0.00
2013-1-24,76.0,61.1,53.0,62.7,57.3,52.4,100,89,56,29.49,29.33,13,6,13,0.00
2013-1-25,59.0,50.0,45.0,58.0,46.5,39.5,100,88,74,29.47,29.31,10,5,10,0.00
2013-1-26,50.0,46.8,43.0,49.0,46.0,39.2,100,97,77,29.49,29.37,10,5,10,0.01
2013-1-27,74.0,60.6,47.0,63.7,56.4,47.0,100,88,57,29.39,29.26,20,7,20,0.01
2013-1-28,75.0,69.6,64.0,66.5,63.9,60.0,100,83,65,29.33,29.18,20,10,20,0.00
2013-1-29,76.0,65.0,53.0,67.4,60.2,35.8,100,85,53,29.18,28.80,25,10,25,0.40
2013-1-30,54.0,45.7,36.0,40.2,28.4,20.4,80,52,32,29.38,28.96,26,10,26,0.00
2013-1-31,69.0,48.4,30.0,31.8,25.3,19.3,77,45,16,29.57,29.35,16,6,16,0.00
2013-2-1,62.0,43.3,25.0,35.8,28.1,18.5,80,57,34,29.63,29.43,13,5,13,0.00
2013-2-2,68.0,53.7,44.0,46.0,37.8,31.0,86,58,27,29.58,29.41,15,6,15,0.00
2013-2-3,71.0,53.4,38.0,41.4,33.3,27.6,86,51,20,29.60,29.27,10,3,10,0.00
2013-2-4,69.0,58.6,50.0,57.2,48.2,32.0,100,70,44,29.27,29.13,16,6,16,0.07
2013-2-5,63.0,57.6,53.0,62.0,57.4,53.0,100,99,92,29.29,29.17,10,5,10,0.00
2013-2-6,73.0,59.9,54.0,64.0,57.6,54.0,100,93,61,29.32,29.19,14,6,14,0.01
2013-2-7,77.0,62.2,54.0,60.7,54.9,40.6,100,81,30,29.36,29.14,23,9,23,0.00
2013-2-8,64.0,52.0,41.0,47.0,35.8,26.7,86,58,27,29.52,29.36,21,6,21,0.00
2013-2-9,59.0,48.6,45.0,59.0,45.0,35.3,100,88,65,29.41,29.05,14,6,14,0.03
2013-2-10,67.0,58.0,45.0,64.0,40.2,23.7,100,59,20,29.29,28.96,21,7,21,0.72
2013-2-11,55.0,49.4,44.0,39.5,34.9,29.5,82,58,41,29.42,29.28,13,6,13,0.00
2013-2-12,48.0,45.4,43.0,48.0,44.7,38.5,100,98,82,29.30,29.11,16,6,16,0.54
2013-2-13,56.0,44.4,39.0,42.4,37.0,34.3,95,77,49,29.41,29.26,24,8,24,0.00
2013-2-14,53.0,53.0,53.0,34.3,34.3,34.3,49,49,49,29.33,29.33,7,7,7,0.00
2013-2-15,53.0,53.0,53.0,34.3,34.3,34.3,49,49,49,29.33,29.33,7,7,7,0.00
2013-2-16,56.0,45.1,30.0,34.3,28.6,24.3,81,54,32,29.66,29.33,13,4,13,0.00
2013-2-17,70.0,52.6,36.0,45.7,32.9,27.7,80,51,22,29.41,29.21,22,9,22,0.00
2013-2-18,78.0,60.1,46.0,57.1,44.2,32.6,84,59,28,29.39,29.09,26,11,26,0.00
2013-2-19,62.0,48.9,33.0,33.7,27.0,21.2,81,46,23,29.60,29.37,13,5,13,0.00
2013-2-20,50.0,42.8,39.0,41.3,36.1,31.1,91,78,48,29.46,29.06,17,8,17,0.09
2013-2-21,65.0,50.8,40.0,52.1,39.6,32.6,100,69,34,29.20,28.87,21,7,21,0.12
2013-2-22,50.0,39.1,30.0,37.9,27.2,19.6,91,64,40,29.38,29.18,17,6,17,0.00
2013-2-23,56.0,40.4,25.0,29.7,26.7,22.7,95,61,34,29.33,29.18,15,4,15,0.00
2013-2-24,70.0,53.0,35.0,43.5,36.6,28.6,89,57,29,29.21,28.91,16,6,16,0.00
2013-2-25,62.0,51.2,37.0,54.5,39.2,28.4,95,66,30,28.93,28.74,31,9,31,0.08
2013-2-26,57.0,45.7,40.0,34.9,32.4,29.8,82,61,38,29.16,28.87,25,10,25,0.00
2013-2-27,56.0,44.7,33.0,34.3,27.2,18.1,94,54,24,29.45,29.13,23,9,23,0.00
2013-2-28,58.0,44.2,32.0,30.2,26.9,22.7,86,54,29,29.54,29.43,21,8,21,0.00
2013-3-1,53.0,41.8,29.0,32.0,28.8,24.5,92,62,41,29.55,29.43,16,7,16,0.00
2013-3-2,53.0,40.0,28.0,27.9,22.6,18.2,83,53,28,29.66,29.47,20,7,20,0.00
2013-3-3,69.0,51.9,32.0,43.3,29.7,21.4,77,46,25,29.47,29.10,22,9,22,0.00
2013-3-4,83.0,65.2,54.0,52.8,46.5,38.2,76,54,22,29.11,28.95,26,11,26,0.00
2013-3-5,63.0,49.5,39.0,49.3,26.4,17.6,70,43,22,29.61,29.07,25,11,25,0.00
2013-3-6,64.0,45.9,29.0,25.4,20.9,12.9,74,41,15,29.71,29.46,12,3,12,0.00
2013-3-7,70.0,54.5,39.0,33.5,26.7,17.9,53,36,21,29.54,29.41,16,6,16,0.00
2013-3-8,64.0,57.7,52.0,55.8,49.4,33.1,84,74,45,29.49,29.30,13,6,13,0.00
2013-3-9,68.0,63.2,59.0,65.4,59.6,54.2,100,88,80,29.31,28.96,23,10,23,0.04
2013-3-10,63.0,49.7,37.0,63.0,40.8,28.9,100,73,53,29.33,29.02,27,10,27,0.76
2013-3-11,58.0,43.0,30.0,32.7,26.4,18.0,97,58,24,29.37,29.28,20,5,20,0.00
2013-3-12,69.0,51.2,35.0,34.2,27.8,21.8,72,44,22,29.57,29.29,16,4,16,0.00
2013-3-13,71.0,54.4,38.0,35.4,32.7,27.5,81,47,24,29.74,29.57,13,4,13,0.00
2013-3-14,77.0,59.9,45.0,46.2,38.8,31.1,66,47,29,29.65,29.47,20,7,20,0.00
2013-3-15,80.0,64.9,51.0,53.6,47.6,41.5,98,58,28,29.47,29.21,21,9,21,0.00
2013-3-16,80.0,67.5,56.0,58.0,54.3,47.0,100,65,43,29.21,29.05,21,11,21,0.00
2013-3-17,75.0,66.5,55.0,62.3,56.3,48.3,93,71,46,29.11,28.99,20,8,20,0.00
2013-3-18,71.0,61.1,51.0,65.0,48.5,35.8,100,66,39,29.30,28.94,20,8,20,0.00
2013-3-19,68.0,55.5,42.0,42.9,36.7,31.8,85,52,32,29.43,29.23,20,7,20,0.00
2013-3-20,68.0,56.1,42.0,35.7,31.3,25.4,72,42,20,29.60,29.32,13,5,13,0.00
2013-3-21,68.0,58.3,49.0,54.4,39.7,28.9,71,50,39,29.32,28.92,20,8,20,0.00
2013-3-22,64.0,52.4,46.0,61.3,49.3,42.4,100,90,69,29.13,28.90,16,7,16,0.00
2013-3-23,55.0,48.7,45.0,52.0,47.7,45.0,100,96,83,29.15,28.94,18,6,18,0.06
2013-3-24,52.0,44.6,39.0,49.0,30.2,21.3,100,60,35,29.42,29.06,28,13,28,0.03
2013-3-25,54.0,41.1,27.0,25.3,19.5,12.6,80,45,22,29.64,29.41,20,8,20,0.00
2013-3-26,59.0,42.9,26.0,23.8,19.9,15.9,72,42,24,29.76,29.57,13,3,13,0.00
2013-3-27,70.0,52.4,36.0,39.1,30.2,20.9,62,44,26,29.59,29.41,20,7,20,0.00
2013-3-28,72.0,60.8,49.0,56.1,50.4,37.6,90,69,55,29.54,29.42,20,8,20,0.00
2013-3-29,72.0,64.8,59.0,58.1,56.4,55.2,90,75,57,29.49,29.35,14,8,14,0.00
2013-3-30,78.0,65.9,55.0,64.3,60.0,55.0,100,83,58,29.41,29.21,16,6,16,1.19
2013-3-31,74.0,65.0,56.0,64.0,57.6,47.0,100,79,49,29.31,29.12,30,6,30,0.79
2013-4-1,82.0,65.9,48.0,54.4,48.5,43.8,98,58,31,29.42,29.28,10,3,10,0.00
2013-4-2,73.0,63.8,50.0,63.3,55.5,40.4,91,75,63,29.34,29.24,20,7,20,0.00
2013-4-3,52.0,47.5,44.0,47.5,45.2,42.1,100,92,76,29.41,29.23,20,6,20,0.48
2013-4-4,51.0,44.8,41.0,45.0,41.5,40.1,100,89,72,29.45,29.36,16,7,16,0.04
2013-4-5,72.0,54.7,39.0,49.1,44.1,39.0,100,72,37,29.55,29.33,10,4,10,0.00
2013-4-6,76.0,62.8,53.0,57.8,52.1,46.8,90,70,46,29.33,29.19,20,9,20,0.00
2013-4-7,72.0,65.2,58.0,61.1,59.1,55.8,95,81,66,29.24,29.08,22,10,22,0.00
2013-4-8,75.0,69.5,63.0,63.6,61.4,58.1,88,76,66,29.11,29.02,22,11,22,0.00
2013-4-9,83.0,73.1,67.0,66.2,64.0,60.4,92,74,51,29.07,28.99,20,9,20,0.00
2013-4-10,72.0,48.1,39.0,69.2,45.9,35.3,100,93,75,29.22,29.04,25,11,25,0.41
2013-4-11,64.0,47.8,37.0,40.0,34.8,29.7,86,63,36,29.23,29.12,16,5,16,0.01
2013-4-12,79.0,60.1,41.0,49.0,43.0,37.1,96,58,26,29.33,29.13,10,4,10,0.00
2013-4-13,80.0,65.6,51.0,51.7,47.1,43.3,82,54,29,29.33,29.10,15,5,15,0.00
2013-4-14,80.0,67.6,53.0,64.6,56.8,45.2,93,70,53,29.10,28.93,20,8,20,0.00
2013-4-15,85.0,74.6,66.0,68.0,65.7,63.4,100,76,51,29.12,28.95,20,10,20,0.00
2013-4-16,88.0,76.7,69.0,68.6,65.9,62.6,96,71,46,29.27,29.10,16,8,16,0.00
2013-4-17,85.0,76.4,72.0,71.5,67.9,64.3,92,76,52,29.24,28.99,26,11,26,0.00
2013-4-18,74.0,54.8,44.0,72.0,47.6,32.6,100,78,51,29.41,28.92,26,12,26,1.29
2013-4-19,63.0,49.1,36.0,37.2,30.9,24.8,82,53,26,29.55,29.38,20,7,20,0.00
2013-4-20,73.0,57.3,40.0,40.1,36.4,32.4,81,49,24,29.52,29.36,17,7,17,0.00
2013-4-21,73.0,59.5,45.0,49.4,44.5,36.8,87,60,39,29.52,29.37,15,5,15,0.00
2013-4-22,77.0,64.6,50.0,58.7,52.2,43.7,82,65,49,29.43,29.19,20,6,20,0.00
2013-4-23,66.0,55.0,42.0,63.3,51.4,38.7,99,88,73,29.42,29.13,20,10,20,0.00
2013-4-24,64.0,49.7,39.0,39.5,36.6,34.0,97,64,35,29.58,29.41,20,7,20,0.04
2013-4-25,75.0,60.9,46.0,45.2,39.4,33.1,66,47,26,29.65,29.47,12,5,12,0.00
2013-4-26,76.0,65.6,55.0,65.9,56.2,43.3,91,73,55,29.49,29.32,20,5,20,0.01
2013-4-27,75.0,67.9,58.0,65.9,59.7,53.6,94,76,53,29.43,29.31,16,7,16,0.00
2013-4-28,83.0,66.1,50.0,64.8,58.4,50.0,100,79,51,29.35,29.21,12,4,12,0.00
2013-4-29,84.0,71.7,59.0,66.6,60.4,56.2,100,71,40,29.29,29.16,15,6,15,0.00
2013-4-30,83.0,70.3,58.0,65.6,60.6,55.1,100,74,45,29.21,29.11,15,5,15,0.00
2013-5-1,86.0,72.1,61.0,66.5,62.3,57.8,100,75,40,29.31,29.12,13,5,13,0.00
2013-5-2,66.0,51.9,42.0,62.8,48.4,36.0,100,88,73,29.58,29.27,23,11,23,0.06
2013-5-3,66.0,51.6,38.0,36.4,31.8,24.8,88,52,23,29.56,29.30,22,10,22,0.01
2013-5-4,71.0,58.0,41.0,42.1,33.3,24.0,83,44,18,29.31,29.23,22,6,22,0.00
2013-5-5,67.0,54.9,42.0,46.8,42.3,37.7,89,64,44,29.46,29.30,16,6,16,0.00
2013-5-6,79.0,63.0,47.0,53.1,49.6,43.1,100,66,37,29.45,29.33,12,3,12,0.00
2013-5-7,87.0,71.6,57.0,55.9,51.6,48.3,78,52,29,29.44,29.30,10,4,10,0.00
2013-5-8,84.0,72.0,59.0,59.2,55.6,51.5,83,58,36,29.37,29.23,17,6,17,0.00
2013-5-9,71.0,67.4,64.0,69.0,64.4,56.8,100,91,61,29.32,29.19,17,6,17,0.24
2013-5-10,82.0,69.1,61.0,68.0,62.9,58.1,100,83,50,29.38,29.20,10,3,10,0.00
2013-5-11,81.0,69.1,57.0,58.6,51.6,43.2,98,59,29,29.50,29.34,16,5,16,0.00
2013-5-12,81.0,66.4,53.0,52.7,39.9,28.9,75,42,18,29.62,29.48,16,4,16,0.00
2013-5-13,87.0,70.1,53.0,51.2,46.3,40.4,76,46,24,29.60,29.46,15,6,15,0.00
2013-5-14,86.0,73.1,59.0,61.0,54.5,46.7,93,55,26,29.54,29.36,17,7,17,0.00
2013-5-15,79.0,69.2,61.0,69.4,65.9,58.5,100,90,64,29.39,29.14,16,9,16,1.82
2013-5-16,81.0,69.2,61.0,70.8,66.0,61.0,100,91,68,29.20,29.10,17,7,17,0.06
2013-5-17,91.0,78.1,70.0,75.0,71.4,69.1,100,82,52,29.24,29.15,16,5,16,0.01
2013-5-18,90.0,79.6,70.0,72.4,69.9,66.9,97,74,51,29.29,29.16,17,9,17,0.02
2013-5-19,89.0,78.5,69.0,70.5,68.3,65.8,100,73,49,29.22,29.09,23,10,23,0.00
2013-5-20,89.0,78.8,72.0,71.0,69.2,67.2,92,74,50,29.21,29.05,21,10,21,0.00
2013-5-21,84.0,71.2,61.0,71.5,66.8,61.0,100,87,62,29.21,29.05,30,8,30,2.07
2013-5-22,90.0,70.7,56.0,71.4,60.6,54.4,100,75,33,29.32,29.16,10,3,10,0.00
2013-5-23,87.0,76.2,67.0,74.0,68.9,62.7,100,80,51,29.46,29.23,16,4,16,0.00
2013-5-24,85.0,76.4,66.0,73.5,70.9,63.8,100,84,65,29.56,29.37,12,5,12,0.92
2013-5-25,85.0,71.9,66.0,73.2,67.8,59.5,100,89,54,29.54,29.39,13,5,13,0.02
2013-5-26,87.0,76.5,69.0,72.7,70.0,66.6,100,82,54,29.46,29.32,15,7,15,0.04
2013-5-27,86.0,77.4,69.0,71.2,68.0,65.2,99,75,51,29.36,29.20,17,8,17,0.00
2013-5-28,87.0,77.6,70.0,70.5,66.5,62.8,94,70,49,29.29,29.15,23,10,23,0.00
2013-5-29,83.0,75.5,71.0,71.2,69.0,67.3,92,81,63,29.21,29.09,23,9,23,0.02
2013-5-30,88.0,78.8,73.0,73.2,70.8,68.2,91,77,58,29.19,29.11,20,10,20,0.00
2013-5-31,91.0,81.4,75.0,73.8,71.2,67.6,92,73,49,29.23,29.08,20,10,20,0.00
2013-6-1,88.0,78.5,73.0,75.5,71.0,67.2,92,78,58,29.31,29.10,22,8,22,0.00
2013-6-2,83.0,73.6,64.0,67.2,56.8,46.6,88,59,31,29.44,29.29,15,6,15,0.00
2013-6-3,91.0,75.0,60.0,63.4,58.9,55.3,90,61,31,29.37,29.24,10,5,10,0.00
2013-6-4,91.0,78.1,66.0,69.0,65.6,61.7,91,68,45,29.40,29.19,15,6,15,0.00
2013-6-5,93.0,79.6,70.0,71.5,67.9,64.3,95,69,41,29.34,29.15,16,4,16,0.00
2013-6-6,79.0,71.9,65.0,73.0,67.8,64.4,100,88,64,29.29,29.16,25,5,25,0.97
2013-6-7,86.0,72.3,60.0,66.0,58.6,52.6,100,67,34,29.39,29.26,15,4,15,0.01
2013-6-8,90.0,76.1,61.0,62.5,58.6,54.6,85,57,35,29.33,29.18,15,4,15,0.00
2013-6-9,91.0,76.4,67.0,72.8,66.7,61.3,100,75,43,29.31,29.21,10,4,10,0.52
2013-6-10,99.0,82.4,68.0,72.7,67.4,60.5,100,66,32,29.37,29.27,10,4,10,0.00
2013-6-11,93.0,82.2,72.0,74.8,70.1,65.2,100,69,45,29.45,29.32,14,6,14,0.00
2013-6-12,95.0,82.6,73.0,76.0,70.6,65.6,100,70,42,29.46,29.34,15,6,15,0.00
2013-6-13,100.0,85.4,72.0,72.4,69.5,64.8,94,63,34,29.47,29.32,12,4,12,0.00
2013-6-14,98.0,86.5,73.0,73.7,70.0,65.3,91,61,39,29.42,29.31,9,3,9,0.00
2013-6-15,95.0,81.8,72.0,77.0,71.4,65.7,90,72,49,29.41,29.28,13,4,13,0.00
2013-6-16,96.0,84.3,73.0,74.7,70.6,64.7,100,67,41,29.43,29.29,12,4,12,0.00
2013-6-17,94.0,79.3,67.0,76.8,71.8,64.8,100,79,51,29.42,29.24,15,4,15,0.66
2013-6-18,84.0,75.4,71.0,74.2,69.8,67.7,96,83,62,29.39,29.27,12,4,12,0.00
2013-6-19,93.0,79.5,68.0,74.1,70.7,68.0,100,77,46,29.42,29.29,10,3,10,0.00
2013-6-20,95.0,83.3,73.0,74.1,69.4,65.1,100,66,40,29.47,29.31,13,5,13,0.00
2013-6-21,94.0,83.3,72.0,74.0,69.2,65.1,97,65,40,29.50,29.37,12,6,12,0.00
2013-6-22,95.0,82.9,72.0,72.8,68.7,64.7,96,65,40,29.46,29.31,15,6,15,0.00
2013-6-23,95.0,83.3,73.0,72.8,68.0,62.2,91,62,37,29.42,29.30,15,7,15,0.00
2013-6-24,93.0,83.3,73.0,72.9,68.2,63.8,91,63,40,29.45,29.31,17,7,17,0.00
2013-6-25,96.0,84.6,73.0,72.7,68.0,62.1,90,60,35,29.40,29.25,17,9,17,0.00
2013-6-26,98.0,85.0,74.0,72.1,68.2,62.9,88,59,39,29.39,29.25,15,7,15,0.00
2013-6-27,100.0,85.8,75.0,72.8,68.6,63.0,83,59,32,29.43,29.30,13,4,13,0.00
2013-6-28,102.0,86.3,75.0,69.9,66.2,63.0,73,53,33,29.35,29.25,10,4,10,0.00
2013-6-29,96.0,84.3,72.0,69.6,61.5,54.9,80,50,27,29.33,29.23,15,4,15,0.00
2013-6-30,89.0,79.4,70.0,63.6,57.3,52.6,76,49,29,29.35,29.20,15,5,15,0.00
2013-7-1,87.0,75.3,63.0,62.0,57.7,54.3,87,57,34,29.43,29.29,16,5,16,0.00
2013-7-2,89.0,76.1,62.0,59.2,53.5,45.6,82,50,24,29.49,29.37,13,4,13,0.00
2013-7-3,94.0,78.1,62.0,61.0,52.3,44.4,76,45,20,29.48,29.36,12,3,12,0.00
2013-7-4,97.0,80.2,67.0,64.6,59.2,52.2,75,51,25,29.43,29.33,13,4,13,0.00
2013-7-5,97.0,81.9,66.0,66.3,61.4,56.2,86,54,27,29.42,29.30,12,4,12,0.00
2013-7-6,96.0,82.7,68.0,68.9,61.7,56.9,80,52,29,29.39,29.30,13,5,13,0.00
2013-7-7,97.0,84.5,71.0,71.9,65.2,60.5,82,55,33,29.44,29.33,13,4,13,0.00
2013-7-8,98.0,83.9,73.0,73.5,69.3,66.0,94,64,38,29.52,29.39,14,5,14,0.00
2013-7-9,100.0,85.9,73.0,72.7,65.8,58.5,87,55,28,29.55,29.40,13,5,13,0.00
2013-7-10,103.0,88.9,79.0,72.8,67.1,63.0,77,51,29,29.50,29.33,14,5,14,0.00
2013-7-11,105.0,85.5,76.0,71.9,68.5,63.6,79,59,28,29.41,29.31,24,5,24,0.00
2013-7-12,100.0,85.5,72.0,73.8,68.8,63.0,97,62,32,29.41,29.29,10,4,10,0.00
2013-7-13,99.0,85.6,75.0,69.7,63.2,55.2,80,50,28,29.42,29.31,13,5,13,0.00
2013-7-14,75.0,70.9,68.0,70.7,65.9,57.3,100,85,55,29.40,29.28,10,3,10,0.17
2013-7-15,76.0,70.5,67.0,72.1,68.5,65.8,100,94,79,29.47,29.32,10,4,10,0.23
2013-7-16,90.0,76.2,70.0,74.1,71.1,67.0,100,87,49,29.60,29.45,17,5,17,0.40
2013-7-17,92.0,78.5,69.0,76.5,70.5,67.1,100,79,46,29.64,29.54,12,4,12,0.18
2013-7-18,98.0,83.1,70.0,74.4,69.0,64.2,100,67,38,29.60,29.43,10,2,10,0.00
2013-7-19,95.0,78.4,72.0,76.4,71.9,66.8,99,82,42,29.47,29.32,9,2,9,0.13
2013-7-20,97.0,79.5,70.0,77.0,71.3,65.4,100,79,40,29.39,29.26,10,4,10,0.14
2013-7-21,96.0,83.2,71.0,75.7,71.0,65.1,100,71,39,29.37,29.28,14,6,14,0.00
2013-7-22,97.0,84.9,75.0,76.0,71.2,65.1,100,67,39,29.40,29.29,12,6,12,0.00
2013-7-23,98.0,86.3,76.0,75.2,70.8,61.0,92,62,38,29.41,29.25,14,6,14,0.00
2013-7-24,94.0,81.1,72.0,72.9,68.6,63.4,92,68,42,29.45,29.25,18,5,18,0.03
2013-7-25,97.0,82.8,70.0,72.9,69.7,67.1,98,68,42,29.49,29.35,9,3,9,0.00
2013-7-26,95.0,81.4,74.0,76.1,71.1,67.6,98,73,42,29.41,29.28,17,4,17,0.08
2013-7-27,91.0,78.5,70.0,72.5,66.0,60.1,94,69,37,29.42,29.32,12,4,12,0.00
2013-7-28,93.0,79.7,66.0,71.4,66.9,64.0,100,68,42,29.41,29.31,12,3,12,0.00
2013-7-29,95.0,83.6,74.0,74.8,69.5,59.1,97,66,36,29.42,29.33,15,6,15,0.00
2013-7-30,97.0,85.7,76.0,72.7,67.2,57.5,85,56,40,29.48,29.38,16,6,16,0.00
2013-7-31,102.0,87.7,76.0,72.2,67.8,62.9,78,54,32,29.47,29.36,12,4,12,0.00
2013-8-1,104.0,88.7,77.0,72.1,69.1,64.5,84,56,30,29.44,29.34,10,4,10,0.00
2013-8-2,103.0,88.6,76.0,71.7,67.5,61.4,83,53,28,29.40,29.31,12,5,12,0.00
2013-8-3,104.0,88.2,76.0,71.0,67.4,61.9,79,53,28,29.45,29.33,12,5,12,0.00
2013-8-4,102.0,87.6,75.0,73.1,68.2,63.0,88,56,30,29.49,29.38,12,4,12,0.00
2013-8-5,102.0,88.9,78.0,71.1,65.4,59.6,77,49,27,29.43,29.27,12,5,12,0.00
2013-8-6,103.0,88.3,76.0,70.5,65.8,60.4,79,50,29,29.35,29.23,12,5,12,0.00
2013-8-7,103.0,88.8,77.0,71.9,66.7,60.5,81,51,28,29.33,29.21,15,6,15,0.00
2013-8-8,104.0,88.8,77.0,72.9,66.9,61.9,84,51,29,29.33,29.21,15,5,15,0.00
2013-8-9,104.0,88.7,76.0,69.9,61.7,51.2,69,44,19,29.37,29.23,12,5,12,0.00
2013-8-10,98.0,85.0,71.0,74.8,68.2,60.7,99,60,36,29.47,29.35,10,4,10,0.00
2013-8-11,103.0,86.7,73.0,73.7,68.7,61.5,94,59,27,29.50,29.38,13,4,13,0.00
2013-8-12,97.0,86.2,75.0,72.3,68.4,63.0,88,58,35,29.48,29.35,10,4,10,0.00
2013-8-13,100.0,83.1,75.0,75.4,69.5,65.6,98,66,36,29.44,29.29,14,5,14,0.05
2013-8-14,88.0,79.4,73.0,74.7,71.5,66.0,100,78,57,29.43,29.32,12,4,12,0.01
2013-8-15,91.0,77.7,68.0,67.4,62.0,58.1,83,61,38,29.47,29.35,10,4,10,0.00
2013-8-16,89.0,76.3,66.0,67.3,61.7,57.4,98,64,38,29.45,29.35,20,4,20,0.02
2013-8-17,91.0,76.4,59.0,63.3,57.4,53.5,98,56,30,29.49,29.38,12,4,12,0.00
2013-8-18,92.0,77.6,65.0,64.1,59.2,54.3,87,57,29,29.49,29.38,9,4,9,0.00
2013-8-19,96.0,82.1,69.0,65.8,59.8,52.4,82,51,25,29.49,29.35,10,4,10,0.00
2013-8-20,98.0,83.2,69.0,65.2,59.5,54.9,74,48,26,29.47,29.35,9,3,9,0.00
2013-8-21,98.0,83.0,71.0,68.0,62.7,57.6,84,53,30,29.52,29.38,12,4,12,0.00
2013-8-22,101.0,86.6,72.0,71.5,66.0,61.3,81,53,30,29.52,29.36,12,4,12,0.00
2013-8-23,102.0,86.7,74.0,72.8,66.9,61.0,82,55,28,29.47,29.32,12,4,12,0.00
2013-8-24,101.0,87.2,75.0,70.5,66.2,61.3,79,52,29,29.50,29.37,13,5,13,0.00
2013-8-25,98.0,85.3,72.0,69.5,65.1,59.6,84,53,32,29.57,29.45,12,4,12,0.00
2013-8-26,97.0,83.7,73.0,69.7,64.5,56.9,85,56,29,29.59,29.46,13,5,13,0.00
2013-8-27,95.0,81.3,72.0,72.5,68.1,61.9,97,68,35,29.54,29.42,12,4,12,0.00
2013-8-28,101.0,85.3,71.0,70.7,65.7,60.4,91,57,28,29.53,29.40,10,2,10,0.00
2013-8-29,103.0,88.4,74.0,68.5,63.1,58.3,75,46,25,29.52,29.36,10,2,10,0.00
2013-8-30,106.0,88.9,74.0,69.2,62.1,57.0,71,44,23,29.44,29.27,10,3,10,0.00
2013-8-31,106.0,89.2,75.0,72.3,64.1,59.5,83,47,24,29.34,29.21,10,4,10,0.00
2013-9-1,103.0,88.7,77.0,69.7,65.4,60.3,72,49,26,29.32,29.21,14,5,14,0.00
2013-9-2,97.0,81.6,71.0,76.5,71.0,65.8,100,72,43,29.40,29.25,8,2,8,1.42
2013-9-3,100.0,85.1,71.0,73.2,65.3,57.5,88,55,27,29.41,29.31,9,2,9,0.00
2013-9-4,100.0,85.8,73.0,71.0,65.9,60.3,86,54,29,29.47,29.32,12,5,12,0.00
2013-9-5,101.0,86.2,73.0,69.4,63.2,56.9,74,49,26,29.55,29.42,7,3,7,0.00
2013-9-6,101.0,86.6,72.0,70.4,62.8,58.4,70,47,28,29.52,29.36,12,3,12,0.00
2013-9-7,101.0,85.6,73.0,71.5,64.6,57.7,83,53,28,29.47,29.34,10,4,10,0.00
2013-9-8,99.0,82.5,68.0,71.2,64.0,57.0,95,59,29,29.42,29.31,12,3,12,0.00
2013-9-9,96.0,83.2,70.0,71.0,63.5,56.8,90,55,29,29.43,29.31,13,4,13,0.00
2013-9-10,94.0,81.2,71.0,71.9,63.8,54.3,94,59,29,29.52,29.37,16,4,16,0.00
2013-9-11,96.0,81.9,70.0,70.5,65.1,58.7,87,59,36,29.56,29.41,10,3,10,0.00
2013-9-12,98.0,84.2,71.0,70.0,66.2,61.9,89,58,34,29.50,29.35,10,3,10,0.00
2013-9-13,97.0,82.5,72.0,70.5,67.1,61.9,87,62,35,29.38,29.24,12,4,12,0.04
2013-9-14,92.0,80.9,71.0,67.4,60.3,55.5,70,51,35,29.39,29.28,12,6,12,0.00
2013-9-15,96.0,82.8,71.0,67.4,61.0,55.4,61,49,33,29.45,29.33,10,4,10,0.00
2013-9-16,99.0,84.6,71.0,71.9,63.4,57.0,78,52,28,29.53,29.39,12,4,12,0.00
2013-9-17,94.0,84.0,75.0,68.5,64.0,56.2,71,53,31,29.50,29.35,12,3,12,0.00
2013-9-18,97.0,84.0,74.0,70.5,64.1,57.0,76,54,30,29.44,29.29,13,5,13,0.00
2013-9-19,91.0,80.5,73.0,75.0,69.7,61.5,100,72,48,29.41,29.28,10,4,10,0.21
2013-9-20,73.0,71.0,69.0,73.0,71.0,69.0,100,100,96,29.32,29.22,9,4,9,1.60
2013-9-21,85.0,70.9,59.0,69.0,53.3,43.9,100,60,25,29.34,29.23,12,4,12,0.00
2013-9-22,84.0,70.2,55.0,55.9,50.8,46.4,84,53,28,29.32,29.18,12,4,12,0.00
2013-9-23,89.0,72.1,57.0,59.9,54.0,49.0,86,57,27,29.27,29.16,10,4,10,0.00
2013-9-24,94.0,77.3,62.0,67.0,55.7,43.5,93,53,20,29.33,29.21,15,4,15,0.00
2013-9-25,96.0,76.7,57.0,54.8,49.0,41.7,74,42,17,29.31,29.17,7,2,7,0.00
2013-9-26,95.0,78.6,64.0,59.8,54.5,50.1,65,46,25,29.31,29.15,12,3,12,0.00
2013-9-27,88.0,77.0,65.0,70.0,64.5,57.3,85,66,53,29.35,29.25,12,4,12,0.00
2013-9-28,87.0,74.8,65.0,73.6,69.4,65.0,100,85,61,29.39,29.26,13,5,13,1.30
2013-9-29,83.0,70.3,61.0,65.0,58.1,49.1,100,70,34,29.41,29.28,12,5,12,0.00
2013-9-30,89.0,74.0,59.0,66.6,56.2,49.2,89,58,29,29.31,29.21,10,2,10,0.00
2013-10-1,91.0,77.7,68.0,73.7,68.2,61.3,100,76,39,29.35,29.21,10,4,10,0.00
2013-10-2,90.0,77.6,70.0,72.4,69.7,64.8,100,79,49,29.39,29.27,12,5,12,0.00
2013-10-3,90.0,78.3,71.0,73.8,70.0,66.3,100,78,49,29.33,29.22,14,6,14,0.00
2013-10-4,88.0,78.3,72.0,73.1,68.9,64.5,100,75,49,29.32,29.24,14,6,14,0.00
2013-10-5,77.0,63.5,50.0,72.2,59.5,42.7,100,87,61,29.41,29.25,20,7,20,0.25
2013-10-6,73.0,59.4,47.0,52.9,42.3,31.5,100,62,22,29.45,29.34,17,5,17,0.00
2013-10-7,82.0,64.3,48.0,49.4,39.0,32.1,74,44,18,29.52,29.37,15,3,15,0.00
2013-10-8,82.0,65.7,53.0,53.1,47.5,39.5,79,54,29,29.48,29.34,9,4,9,0.00
2013-10-9,85.0,67.2,54.0,58.0,53.1,50.3,91,64,33,29.45,29.32,10,4,10,0.00
2013-10-10,84.0,69.4,57.0,62.2,56.8,53.5,100,68,37,29.43,29.24,13,4,13,0.00
2013-10-11,85.0,74.0,65.0,69.1,66.5,59.2,100,79,59,29.31,29.22,17,6,17,0.00
2013-10-12,95.0,76.7,68.0,74.7,70.3,63.7,100,82,45,29.43,29.25,13,5,13,0.18
2013-10-13,76.0,69.9,65.0,71.0,67.4,65.0,100,92,76,29.57,29.40,12,4,12,0.00
2013-10-14,71.0,68.7,67.0,71.0,68.6,67.0,100,100,97,29.49,29.29,10,5,10,0.70
2013-10-15,80.0,66.0,53.0,73.8,65.5,53.0,100,98,78,29.36,29.27,14,7,14,1.86
2013-10-16,62.0,54.7,51.0,58.7,53.1,50.3,100,95,74,29.40,29.30,13,4,13,0.29
2013-10-17,73.0,57.3,44.0,52.5,47.7,43.2,100,74,37,29.45,29.31,7,2,7,0.00
2013-10-18,72.0,60.2,49.0,58.1,51.9,47.2,99,76,47,29.38,29.25,20,3,20,0.00
2013-10-19,65.0,52.1,41.0,51.2,40.5,36.1,93,68,37,29.50,29.36,23,6,23,0.00
2013-10-20,72.0,55.4,41.0,47.5,42.7,37.1,94,66,32,29.37,29.21,18,4,18,0.00
2013-10-21,74.0,59.6,50.0,62.2,54.0,45.0,96,82,63,29.40,29.21,16,4,16,0.00
2013-10-22,75.0,57.3,39.0,48.5,43.8,37.1,100,67,28,29.47,29.35,12,3,12,0.00
2013-10-23,85.0,64.7,48.0,53.6,47.7,44.0,95,60,26,29.47,29.35,7,2,7,0.00
2013-10-24,78.0,63.5,52.0,53.1,48.5,42.7,85,60,38,29.58,29.37,10,4,10,0.00
2013-10-25,69.0,56.5,49.0,46.9,43.5,37.7,87,63,42,29.72,29.54,12,5,12,0.00
2013-10-26,76.0,60.7,51.0,62.0,53.6,44.7,100,78,61,29.54,29.36,13,5,13,1.45
2013-10-27,72.0,61.9,57.0,66.0,58.7,56.8,100,90,62,29.45,29.34,7,2,7,0.01
2013-10-28,77.0,65.1,55.0,66.9,61.8,55.0,100,90,69,29.45,29.33,10,3,10,0.00
2013-10-29,75.0,70.5,67.0,69.5,68.0,65.0,100,92,81,29.44,29.35,14,6,14,0.00
2013-10-30,70.0,67.2,64.0,69.0,66.6,63.7,100,98,87,29.37,29.14,17,6,17,0.19
2013-10-31,76.0,66.8,53.0,69.7,55.3,38.8,100,72,29,29.19,29.01,20,7,20,0.01
2013-11-1,77.0,60.8,48.0,53.1,47.9,42.8,93,66,36,29.39,29.13,13,4,13,0.00
2013-11-2,68.0,56.0,47.0,44.1,37.3,31.0,84,52,27,29.60,29.39,16,5,16,0.00
2013-11-3,67.0,54.2,40.0,45.7,39.8,32.6,84,60,36,29.50,29.30,14,5,14,0.00
2013-11-4,59.0,56.5,52.0,59.0,53.6,45.0,100,91,65,29.40,29.30,10,4,10,0.18
2013-11-5,68.0,63.1,59.0,68.0,63.1,59.0,100,100,100,29.39,29.27,10,4,10,0.44
2013-11-6,68.0,54.4,41.0,68.0,50.8,38.9,100,88,64,29.62,29.29,17,7,17,0.11
2013-11-7,64.0,48.3,35.0,44.0,39.1,35.0,100,74,40,29.78,29.62,9,3,9,0.00
2013-11-8,68.0,54.0,42.0,47.5,42.9,37.5,100,70,37,29.65,29.43,13,4,13,0.00
2013-11-9,66.0,57.7,53.0,50.4,47.6,44.5,81,70,54,29.53,29.42,13,5,13,0.00
2013-11-10,69.0,57.0,50.0,49.3,46.1,38.6,84,69,34,29.64,29.52,9,2,9,0.00
2013-11-11,76.0,58.9,47.0,52.7,48.6,43.7,95,71,41,29.60,29.49,7,2,7,0.00
2013-11-12,58.0,46.4,31.0,56.3,32.9,19.4,98,62,31,29.91,29.57,22,8,22,0.00
2013-11-13,54.0,37.2,23.0,27.4,23.2,20.2,94,60,31,29.89,29.58,9,3,9,0.00
2013-11-14,61.0,45.8,28.0,45.9,32.1,22.5,93,62,28,29.58,29.29,13,6,13,0.00
2013-11-15,70.0,58.3,52.0,59.6,51.7,44.9,97,79,58,29.29,29.14,14,6,14,0.00
2013-11-16,73.0,67.7,60.0,70.2,64.7,58.9,100,91,71,29.17,29.01,20,10,20,0.00
2013-11-17,86.0,74.0,61.0,70.5,57.5,36.5,95,61,31,29.31,29.03,17,7,17,0.00
2013-11-18,69.0,60.3,51.0,38.9,32.4,26.2,49,36,20,29.48,29.31,12,6,12,0.00
2013-11-19,69.0,58.3,52.0,40.5,33.5,26.7,56,40,23,29.47,29.31,13,6,13,0.00
2013-11-20,65.0,55.9,44.0,51.2,39.9,30.1,78,55,40,29.31,29.21,16,6,16,0.00
2013-11-21,72.0,63.4,44.0,69.7,61.5,43.5,100,94,78,29.45,29.25,21,6,21,0.24
2013-11-22,44.0,36.1,34.0,44.0,36.0,34.0,100,100,95,29.65,29.43,22,11,22,0.32
2013-11-23,42.0,37.1,34.0,39.7,34.6,26.9,100,91,71,29.75,29.63,14,7,14,0.08
2013-11-24,35.0,32.5,29.0,28.3,25.1,22.4,87,74,61,29.79,29.56,13,6,13,0.01
2013-11-25,37.0,34.0,31.0,36.0,33.4,25.9,100,98,75,29.57,29.37,15,4,15,0.62
2013-11-26,52.0,40.6,34.0,36.0,32.0,22.5,100,74,46,29.58,29.32,22,10,22,0.00
2013-11-27,45.0,34.0,27.0,24.0,18.7,14.8,77,55,32,29.67,29.57,14,5,14,0.00
2013-11-28,54.0,36.8,26.0,30.3,25.3,20.5,91,66,36,29.67,29.54,12,4,12,0.00
2013-11-29,59.0,42.0,29.0,40.9,32.3,25.0,97,71,39,29.75,29.58,12,3,12,0.00
2013-11-30,66.0,51.0,37.0,51.9,42.5,32.4,98,74,46,29.61,29.41,17,6,17,0.00
2013-12-1,70.0,58.3,48.0,57.6,54.3,46.9,100,88,63,29.42,29.15,16,6,16,0.00
2013-12-2,71.0,54.8,44.0,61.7,49.5,44.0,100,85,47,29.15,28.94,13,2,13,0.00
2013-12-3,74.0,55.4,41.0,55.4,44.1,37.1,100,72,27,28.94,28.81,10,5,10,0.01
2013-12-4,79.0,61.6,46.0,60.7,52.2,34.9,100,74,41,29.13,28.86,16,7,16,0.00
2013-12-5,46.0,33.3,28.0,35.7,27.1,22.0,100,79,61,29.36,29.12,20,10,20,0.07
2013-12-6,32.0,26.1,22.0,31.0,26.0,21.3,100,100,97,29.69,29.29,7,1,7,0.61
2013-12-7,25.0,21.9,18.0,25.0,21.8,18.0,100,100,97,29.72,29.46,0,0,0,0.00
2013-12-8,32.0,29.3,24.0,32.0,29.3,24.0,100,100,100,29.47,29.25,4,0,4,0.00
2013-12-9,32.0,30.2,25.0,31.0,29.9,23.5,100,99,86,29.59,29.35,10,1,10,0.00
2013-12-10,38.0,26.0,16.0,30.5,23.5,16.0,100,91,67,29.71,29.54,12,2,12,0.03
2013-12-11,45.0,32.0,23.0,36.3,29.2,23.0,100,90,65,29.78,29.52,10,3,10,0.22
2013-12-12,53.0,35.9,21.0,35.9,29.0,21.0,100,79,46,29.82,29.52,10,2,10,0.01
2013-12-13,45.0,41.4,38.0,45.0,38.2,29.9,100,89,67,29.52,29.05,13,6,13,0.08
2013-12-14,46.0,40.1,30.0,46.0,37.2,26.9,100,89,71,29.52,29.03,24,9,24,0.00
2013-12-15,61.0,41.0,27.0,36.3,30.7,25.2,100,71,33,29.58,29.46,12,4,12,0.00
2013-12-16,65.0,47.7,33.0,38.8,35.0,30.9,96,66,35,29.49,29.42,13,6,13,0.00
2013-12-17,73.0,50.9,37.0,42.1,37.1,32.3,88,63,30,29.56,29.43,9,3,9,0.00
2013-12-18,70.0,52.9,39.0,47.6,40.8,35.7,90,67,34,29.51,29.27,22,6,22,0.00
2013-12-19,71.0,60.6,50.0,63.3,55.6,47.0,100,85,64,29.27,29.05,25,11,25,0.00
2013-12-20,69.0,56.8,35.0,64.5,54.3,35.0,100,92,75,29.16,28.98,18,8,18,0.00
2013-12-21,55.0,43.8,34.0,55.0,43.8,34.0,100,100,100,29.02,28.77,18,5,18,1.60
2013-12-22,47.0,35.7,26.0,47.0,31.9,25.3,100,87,62,29.58,29.02,20,9,20,0.02
2013-12-23,47.0,31.5,21.0,33.4,27.1,21.0,100,85,55,29.75,29.56,10,3,10,0.00
2013-12-24,51.0,35.1,20.0,35.4,28.8,20.0,100,80,51,29.74,29.47,14,4,14,0.00
2013-12-25,61.0,42.3,32.0,43.3,35.2,28.7,96,77,52,29.62,29.47,16,5,16,0.00
2013-12-26,57.0,39.2,28.0,41.5,34.2,28.0,100,85,49,29.66,29.57,9,2,9,0.00
2013-12-27,60.0,43.4,30.0,44.4,35.6,30.0,100,77,43,29.68,29.55,9,1,9,0.00
2013-12-28,61.0,47.2,36.0,43.7,37.7,34.3,100,72,43,29.55,29.20,13,4,13,0.00
2013-12-29,53.0,39.7,31.0,42.3,32.4,23.4,85,75,64,29.47,29.16,20,7,20,0.00
2013-12-30,43.0,32.9,26.0,24.6,21.5,18.0,82,63,43,29.60,29.43,15,6,15,0.00
2013-12-31,55.0,37.6,23.0,29.2,24.8,18.6,92,64,33,29.66,29.42,12,4,12,0.00
2014-1-1,65.0,46.4,31.0,49.8,37.0,26.6,96,72,48,29.42,29.16,22,10,22,0.00
2014-1-2,42.0,30.4,22.0,26.9,19.1,15.8,85,64,38,29.65,29.38,23,9,23,0.00